createdAt,value
2018-10-12T00:01:16.581Z,6.37
2018-10-12T00:03:45.014Z,6.90
2018-10-12T00:06:13.301Z,5.77
2018-10-12T00:08:41.598Z,5.67
2018-10-12T00:11:09.961Z,6.10
2018-10-12T00:13:38.528Z,6.20
2018-10-12T00:16:06.804Z,6.63
2018-10-12T00:18:35.065Z,6.87
2018-10-12T00:21:13.135Z,7.37
2018-10-12T00:23:41.437Z,6.03
2018-10-12T00:26:09.736Z,5.77
2018-10-12T00:28:38.033Z,5.60
2018-10-12T00:31:06.503Z,6.20
2018-10-12T00:33:34.758Z,5.70
2018-10-12T00:36:03.005Z,6.13
2018-10-12T00:38:31.283Z,6.13
2018-10-12T00:40:59.540Z,5.70
2018-10-12T00:43:27.814Z,5.67
2018-10-12T00:45:56.099Z,5.50
2018-10-12T00:48:24.366Z,6.17
2018-10-12T00:50:52.637Z,5.87
2018-10-12T00:53:20.918Z,5.77
2018-10-12T00:55:49.198Z,6.47
2018-10-12T00:58:17.507Z,5.90
2018-10-12T01:00:45.791Z,5.67
2018-10-12T01:03:14.124Z,5.90
2018-10-12T01:05:42.437Z,6.37
2018-10-12T01:08:10.793Z,6.07
2018-10-12T01:10:39.115Z,6.10
2018-10-12T01:13:07.415Z,6.23
2018-10-12T01:15:35.719Z,6.30
2018-10-12T01:18:04.025Z,6.23
2018-10-12T01:20:32.363Z,6.33
2018-10-12T01:23:00.660Z,6.03
2018-10-12T01:25:28.981Z,5.90
2018-10-12T01:27:57.279Z,5.43
2018-10-12T01:30:25.884Z,5.83
2018-10-12T01:32:59.588Z,6.60
2018-10-12T01:35:27.915Z,5.83
2018-10-12T01:37:56.176Z,5.77
2018-10-12T01:40:24.463Z,6.50
2018-10-12T01:42:52.804Z,6.70
2018-10-12T01:45:21.107Z,6.07
2018-10-12T01:47:49.396Z,6.10
2018-10-12T01:50:17.689Z,6.10
2018-10-12T01:52:45.973Z,5.73
2018-10-12T01:55:14.303Z,6.23
2018-10-12T01:57:42.573Z,6.03
2018-10-12T02:00:10.896Z,6.13
2018-10-12T02:02:39.302Z,6.10
2018-10-12T02:05:08.008Z,6.50
2018-10-12T02:07:36.346Z,5.90
2018-10-12T02:10:04.750Z,6.07
2018-10-12T02:12:33.011Z,5.77
2018-10-12T02:15:01.297Z,5.93
2018-10-12T02:17:29.557Z,5.93
2018-10-12T02:19:57.873Z,5.73
2018-10-12T02:22:26.209Z,6.13
2018-10-12T02:24:54.548Z,6.10
2018-10-12T02:27:22.798Z,5.87
2018-10-12T02:29:51.186Z,5.83
2018-10-12T02:32:19.497Z,6.00
2018-10-12T02:34:47.752Z,6.10
2018-10-12T02:37:16.037Z,6.27
2018-10-12T02:39:44.318Z,5.80
2018-10-12T02:42:12.612Z,5.97
2018-10-12T02:44:40.931Z,5.70
2018-10-12T02:47:09.189Z,5.63
2018-10-12T02:49:37.498Z,6.07
2018-10-12T02:52:05.761Z,5.70
2018-10-12T02:54:34.023Z,5.93
2018-10-12T02:57:02.338Z,5.53
2018-10-12T02:59:30.604Z,6.17
2018-10-12T03:01:58.923Z,6.23
2018-10-12T03:04:27.178Z,6.37
2018-10-12T03:06:55.454Z,6.27
2018-10-12T03:09:23.741Z,5.93
2018-10-12T03:11:52.000Z,5.77
2018-10-12T03:14:20.261Z,5.60
2018-10-12T03:16:48.561Z,6.50
2018-10-12T03:19:16.862Z,5.90
2018-10-12T03:21:45.147Z,5.60
2018-10-12T03:24:13.405Z,5.83
2018-10-12T03:26:41.733Z,5.83
2018-10-12T03:29:09.970Z,5.73
2018-10-12T03:31:38.254Z,6.20
2018-10-12T03:34:06.594Z,7.43
2018-10-12T03:36:34.940Z,5.93
2018-10-12T03:39:03.510Z,5.60
2018-10-12T03:41:31.799Z,5.80
2018-10-12T03:44:00.067Z,5.77
2018-10-12T03:46:28.342Z,5.50
2018-10-12T03:48:56.646Z,5.80
2018-10-12T03:51:24.930Z,5.87
2018-10-12T03:53:53.228Z,6.33
2018-10-12T03:56:21.518Z,6.10
2018-10-12T03:58:49.812Z,6.40
2018-10-12T04:01:18.101Z,5.77
2018-10-12T04:03:46.391Z,5.77
2018-10-12T04:06:14.676Z,5.63
2018-10-12T04:08:42.971Z,5.97
2018-10-12T04:11:11.248Z,5.93
2018-10-12T04:13:39.534Z,5.43
2018-10-12T04:16:07.823Z,6.03
2018-10-12T04:18:36.065Z,5.47
2018-10-12T04:21:04.333Z,6.03
2018-10-12T04:23:32.668Z,6.33
2018-10-12T04:26:00.993Z,5.77
2018-10-12T04:28:29.585Z,5.47
2018-10-12T04:30:57.881Z,6.03
2018-10-12T04:33:26.188Z,5.63
2018-10-12T04:35:54.536Z,5.60
2018-10-12T04:38:22.900Z,5.57
2018-10-12T04:41:01.717Z,5.33
2018-10-12T04:43:30.618Z,5.50
2018-10-12T04:45:59.482Z,5.80
2018-10-12T04:48:27.960Z,5.73
2018-10-12T04:50:56.513Z,5.13
2018-10-12T04:53:25.065Z,5.13
2018-10-12T04:55:53.740Z,5.27
2018-10-12T04:58:22.041Z,5.00
2018-10-12T05:00:50.684Z,5.30
2018-10-12T05:03:18.953Z,5.17
2018-10-12T05:05:47.240Z,4.83
2018-10-12T05:08:15.618Z,4.90
2018-10-12T05:10:43.901Z,4.93
2018-10-12T05:13:12.203Z,5.07
2018-10-12T05:18:15.625Z,5.93
2018-10-12T05:20:45.967Z,5.80
2018-10-12T05:23:14.285Z,4.60
2018-10-12T05:25:42.913Z,4.70
2018-10-12T05:28:11.186Z,5.27
2018-10-12T05:30:39.516Z,5.00
2018-10-12T05:33:07.827Z,4.87
2018-10-12T05:35:36.120Z,4.90
2018-10-12T05:38:04.678Z,6.00
2018-10-12T05:40:33.017Z,5.30
2018-10-12T05:43:01.810Z,4.80
2018-10-12T05:45:30.069Z,4.73
2018-10-12T05:48:09.793Z,4.80
2018-10-12T05:50:38.078Z,5.03
2018-10-12T05:53:06.610Z,4.40
2018-10-12T05:55:34.933Z,5.40
2018-10-12T05:58:03.309Z,4.93
2018-10-12T06:00:31.602Z,4.93
2018-10-12T06:02:59.897Z,5.30
2018-10-12T06:05:28.364Z,5.00
2018-10-12T06:07:56.678Z,5.13
2018-10-12T06:10:24.967Z,4.73
2018-10-12T06:12:53.253Z,5.40
2018-10-12T06:15:21.590Z,5.40
2018-10-12T06:17:49.873Z,5.93
2018-10-12T06:20:18.165Z,4.80
2018-10-12T06:22:46.465Z,5.20
2018-10-12T06:25:14.721Z,4.90
2018-10-12T06:27:43.047Z,4.80
2018-10-12T06:30:11.371Z,4.30
2018-10-12T06:32:39.645Z,4.80
2018-10-12T06:35:07.869Z,4.60
2018-10-12T06:37:36.154Z,4.63
2018-10-12T06:40:04.825Z,4.80
2018-10-12T06:42:33.092Z,4.80
2018-10-12T06:45:01.583Z,4.70
2018-10-12T06:47:30.064Z,4.47
2018-10-12T06:49:58.364Z,5.33
2018-10-12T06:52:26.643Z,5.10
2018-10-12T06:54:54.941Z,6.10
2018-10-12T06:57:23.210Z,7.23
2018-10-12T06:59:51.574Z,6.63
2018-10-12T07:02:20.558Z,6.37
2018-10-12T07:04:49.989Z,6.53
2018-10-12T07:07:18.459Z,6.63
2018-10-12T07:09:46.853Z,7.00
2018-10-12T07:12:15.524Z,6.20
2018-10-12T07:14:44.039Z,6.20
2018-10-12T07:17:12.361Z,6.10
2018-10-12T07:19:40.733Z,5.93
2018-10-12T07:22:08.943Z,6.73
2018-10-12T07:24:37.231Z,6.20
2018-10-12T07:27:05.793Z,6.00
2018-10-12T07:29:34.129Z,5.37
2018-10-12T07:32:02.420Z,6.53
2018-10-12T07:34:30.749Z,5.83
2018-10-12T07:36:59.055Z,5.77
2018-10-12T07:39:27.294Z,5.87
2018-10-12T07:41:55.581Z,5.77
2018-10-12T07:44:23.882Z,5.93
2018-10-12T07:46:52.195Z,5.50
2018-10-12T07:49:20.485Z,6.33
2018-10-12T07:51:48.761Z,5.60
2018-10-12T07:54:17.045Z,5.90
2018-10-12T07:56:45.301Z,5.77
2018-10-12T07:59:13.606Z,5.60
2018-10-12T08:01:41.989Z,7.47
2018-10-12T08:04:10.262Z,5.90
2018-10-12T08:06:38.586Z,5.53
2018-10-12T08:09:07.703Z,5.67
2018-10-12T08:11:36.424Z,5.10
2018-10-12T08:14:04.771Z,5.80
2018-10-12T08:16:33.033Z,4.97
2018-10-12T08:19:01.357Z,5.93
2018-10-12T08:21:30.325Z,5.07
2018-10-12T08:23:58.620Z,6.27
2018-10-12T08:26:26.946Z,5.33
2018-10-12T08:28:55.226Z,5.70
2018-10-12T08:31:23.537Z,5.27
2018-10-12T08:33:51.796Z,5.27
2018-10-12T08:36:20.132Z,5.37
2018-10-12T08:38:48.363Z,5.47
2018-10-12T08:41:16.629Z,5.47
2018-10-12T08:43:44.931Z,5.23
2018-10-12T08:46:13.210Z,5.10
2018-10-12T08:48:41.484Z,5.23
2018-10-12T08:51:09.784Z,5.07
2018-10-12T08:53:38.094Z,5.40
2018-10-12T08:56:06.590Z,4.90
2018-10-12T08:58:34.846Z,5.13
2018-10-12T09:01:03.113Z,4.77
2018-10-12T09:03:31.377Z,4.77
2018-10-12T09:05:59.658Z,4.70
2018-10-12T09:08:27.956Z,4.87
2018-10-12T09:10:56.355Z,3.70
2018-10-12T09:13:24.633Z,5.00
2018-10-12T09:15:52.909Z,4.00
2018-10-12T09:18:21.192Z,4.47
2018-10-12T09:20:49.592Z,4.47
2018-10-12T09:23:17.832Z,4.03
2018-10-12T09:25:46.214Z,3.90
2018-10-12T09:28:14.543Z,4.70
2018-10-12T09:30:42.985Z,4.30
2018-10-12T09:33:11.283Z,4.10
2018-10-12T09:35:39.521Z,3.83
2018-10-12T09:38:07.816Z,4.47
2018-10-12T09:40:36.410Z,2.87
2018-10-12T09:43:04.792Z,3.00
2018-10-12T09:45:32.986Z,4.00
2018-10-12T09:48:01.245Z,4.43
2018-10-12T09:50:29.638Z,3.57
2018-10-12T09:52:57.790Z,4.40
2018-10-12T09:55:26.104Z,3.20
2018-10-12T09:57:54.440Z,3.00
2018-10-12T10:00:28.148Z,4.07
2018-10-12T10:03:01.933Z,2.80
2018-10-12T10:05:30.600Z,3.70
2018-10-12T10:07:59.060Z,4.00
2018-10-12T10:10:27.237Z,2.73
2018-10-12T10:12:55.560Z,3.00
2018-10-12T10:15:24.045Z,3.67
2018-10-12T10:17:52.112Z,4.90
2018-10-12T10:20:20.365Z,2.33
2018-10-12T10:22:48.637Z,3.30
2018-10-12T10:25:16.944Z,2.47
2018-10-12T10:27:45.232Z,3.30
2018-10-12T10:30:13.510Z,3.03
2018-10-12T10:32:41.821Z,3.23
2018-10-12T10:35:10.099Z,3.33
2018-10-12T10:37:38.426Z,1.97
2018-10-12T10:40:06.704Z,2.60
2018-10-12T10:42:35.026Z,3.20
2018-10-12T10:45:03.322Z,2.57
2018-10-12T10:47:31.656Z,3.40
2018-10-12T10:49:59.989Z,3.20
2018-10-12T10:52:28.287Z,2.77
2018-10-12T10:54:56.537Z,3.10
2018-10-12T10:57:24.806Z,2.00
2018-10-12T10:59:53.056Z,2.47
2018-10-12T11:02:21.593Z,2.20
2018-10-12T11:04:49.868Z,3.27
2018-10-12T11:07:18.148Z,2.10
2018-10-12T11:09:46.402Z,2.70
2018-10-12T11:12:14.697Z,2.73
2018-10-12T11:14:42.939Z,2.53
2018-10-12T11:17:11.212Z,2.70
2018-10-12T11:19:39.554Z,2.47
2018-10-12T11:22:07.776Z,2.73
2018-10-12T11:24:36.091Z,2.37
2018-10-12T11:27:04.319Z,2.17
2018-10-12T11:29:32.603Z,2.97
2018-10-12T11:32:00.876Z,2.53
2018-10-12T11:34:29.171Z,2.60
2018-10-12T11:36:57.587Z,2.70
2018-10-12T11:39:25.898Z,2.77
2018-10-12T11:41:54.187Z,2.37
2018-10-12T11:44:22.486Z,2.43
2018-10-12T11:46:50.792Z,2.80
2018-10-12T11:49:19.077Z,2.17
2018-10-12T11:51:47.318Z,2.40
2018-10-12T11:54:15.581Z,2.50
2018-10-12T11:56:43.856Z,2.40
2018-10-12T11:59:12.120Z,2.90
2018-10-12T12:01:40.437Z,2.30
2018-10-12T12:04:08.892Z,2.60
2018-10-12T12:06:37.184Z,2.43
2018-10-12T12:09:06.433Z,2.13
2018-10-12T12:11:34.737Z,1.90
2018-10-12T12:14:03.052Z,2.20
2018-10-12T12:16:31.361Z,2.43
2018-10-12T12:18:59.696Z,2.67
2018-10-12T12:21:27.990Z,2.50
2018-10-12T12:23:56.265Z,2.17
2018-10-12T12:26:24.597Z,2.10
2018-10-12T12:28:52.930Z,2.43
2018-10-12T12:31:21.219Z,2.70
2018-10-12T12:33:49.499Z,2.70
2018-10-12T12:36:17.872Z,1.97
2018-10-12T12:38:46.081Z,2.30
2018-10-12T12:41:14.389Z,2.20
2018-10-12T12:43:43.774Z,2.37
2018-10-12T12:46:12.058Z,2.07
2018-10-12T12:48:40.961Z,2.40
2018-10-12T12:51:09.893Z,2.50
2018-10-12T12:53:38.197Z,2.50
2018-10-12T12:56:06.516Z,2.10
2018-10-12T12:58:34.784Z,1.83
2018-10-12T13:01:03.070Z,2.30
2018-10-12T13:03:31.352Z,2.43
2018-10-12T13:05:59.595Z,2.07
2018-10-12T13:08:27.881Z,2.07
2018-10-12T13:10:56.234Z,2.17
2018-10-12T13:13:24.511Z,2.50
2018-10-12T13:15:52.829Z,3.00
2018-10-12T13:18:21.056Z,2.20
2018-10-12T13:20:49.364Z,2.50
2018-10-12T13:23:17.733Z,1.90
2018-10-12T13:25:46.068Z,1.90
2018-10-12T13:28:14.285Z,2.47
2018-10-12T13:30:42.580Z,2.37
2018-10-12T13:33:10.861Z,2.33
2018-10-12T13:35:39.214Z,2.03
2018-10-12T13:38:07.494Z,2.30
2018-10-12T13:40:35.771Z,2.20
2018-10-12T13:43:04.105Z,2.00
2018-10-12T13:45:32.358Z,2.30
2018-10-12T13:48:00.633Z,2.00
2018-10-12T13:50:28.953Z,2.07
2018-10-12T13:52:57.212Z,2.70
2018-10-12T13:55:25.517Z,2.00
2018-10-12T13:57:53.781Z,2.10
2018-10-12T14:00:22.418Z,2.20
2018-10-12T14:02:50.657Z,2.10
2018-10-12T14:05:18.952Z,2.00
2018-10-12T14:07:48.163Z,2.27
2018-10-12T14:10:16.459Z,1.83
2018-10-12T14:12:44.713Z,2.40
2018-10-12T14:15:13.142Z,2.40
2018-10-12T14:17:41.451Z,2.30
2018-10-12T14:20:09.887Z,2.30
2018-10-12T14:22:38.243Z,2.00
2018-10-12T14:25:06.919Z,2.10
2018-10-12T14:27:35.128Z,2.00
2018-10-12T14:30:04.125Z,2.43
2018-10-12T14:32:32.526Z,2.03
2018-10-12T14:35:00.841Z,2.00
2018-10-12T14:37:29.129Z,2.33
2018-10-12T14:39:57.423Z,2.30
2018-10-12T14:42:25.708Z,2.00
2018-10-12T14:44:54.158Z,2.30
2018-10-12T14:47:22.382Z,1.93
2018-10-12T14:49:50.693Z,2.20
2018-10-12T14:52:18.969Z,2.23
2018-10-12T14:54:47.309Z,1.87
2018-10-12T14:57:19.762Z,2.10
2018-10-12T14:59:49.374Z,2.40
2018-10-12T15:02:18.481Z,1.87
2018-10-12T15:04:46.848Z,2.23
2018-10-12T15:07:15.166Z,2.10
2018-10-12T15:09:43.471Z,1.93
2018-10-12T15:12:11.753Z,2.00
2018-10-12T15:14:51.169Z,2.10
2018-10-12T15:17:19.432Z,2.10
2018-10-12T15:19:47.720Z,2.03
2018-10-12T15:22:16.033Z,2.30
2018-10-12T15:24:44.305Z,2.60
2018-10-12T15:27:12.597Z,2.47
2018-10-12T15:29:40.873Z,2.47
2018-10-12T15:32:09.163Z,2.63
2018-10-12T15:34:37.608Z,1.90
2018-10-12T15:37:05.930Z,2.00
2018-10-12T15:39:34.165Z,2.07
2018-10-12T15:42:02.473Z,2.50
2018-10-12T15:44:31.090Z,2.50
2018-10-12T15:46:59.393Z,2.73
2018-10-12T15:49:28.078Z,1.80
2018-10-12T15:51:56.419Z,1.87
2018-10-12T15:54:24.686Z,1.90
2018-10-12T15:56:52.987Z,2.10
2018-10-12T15:59:21.241Z,2.40
2018-10-12T16:01:49.540Z,2.00
2018-10-12T16:04:17.820Z,2.13
2018-10-12T16:06:46.161Z,2.20
2018-10-12T16:09:14.485Z,2.20
2018-10-12T16:11:42.809Z,2.20
2018-10-12T16:14:11.130Z,1.97
2018-10-12T16:16:39.406Z,2.33
2018-10-12T16:19:07.683Z,2.50
2018-10-12T16:21:35.978Z,2.30
2018-10-12T16:24:09.081Z,2.37
2018-10-12T16:26:37.383Z,1.80
2018-10-12T16:29:05.930Z,1.97
2018-10-12T16:31:34.174Z,2.10
2018-10-12T16:34:02.437Z,2.27
2018-10-12T16:36:30.724Z,1.90
2018-10-12T16:38:59.027Z,2.63
2018-10-12T16:41:27.340Z,2.30
2018-10-12T16:43:55.662Z,2.30
2018-10-12T16:46:23.994Z,2.67
2018-10-12T16:48:52.346Z,1.80
2018-10-12T16:51:20.549Z,2.10
2018-10-12T16:53:48.840Z,1.83
2018-10-12T16:56:17.127Z,2.90
2018-10-12T16:58:45.451Z,2.70
2018-10-12T17:01:13.750Z,2.27
2018-10-12T17:03:42.019Z,2.33
2018-10-12T17:06:10.340Z,2.23
2018-10-12T17:08:38.629Z,2.67
2018-10-12T17:11:07.182Z,2.20
2018-10-12T17:13:35.462Z,2.27
2018-10-12T17:16:03.758Z,2.90
2018-10-12T17:18:32.090Z,2.07
2018-10-12T17:21:00.326Z,2.17
2018-10-12T17:23:28.601Z,2.37
2018-10-12T17:25:56.918Z,2.10
2018-10-12T17:28:25.221Z,2.50
2018-10-12T17:30:53.529Z,2.20
2018-10-12T17:33:21.784Z,3.67
2018-10-12T17:35:50.097Z,2.50
2018-10-12T17:38:18.355Z,2.30
2018-10-12T17:40:46.655Z,2.30
2018-10-12T17:43:14.893Z,2.20
2018-10-12T17:45:43.236Z,2.63
2018-10-12T17:48:11.498Z,3.13
2018-10-12T17:50:39.796Z,2.47
2018-10-12T17:53:08.070Z,4.03
2018-10-12T17:55:36.361Z,2.87
2018-10-12T17:58:04.634Z,2.63
2018-10-12T18:00:33.002Z,3.10
2018-10-12T18:03:01.262Z,2.90
2018-10-12T18:05:29.565Z,3.27
2018-10-12T18:07:58.023Z,2.33
2018-10-12T18:10:26.302Z,3.47
2018-10-12T18:12:54.565Z,2.87
2018-10-12T18:15:23.013Z,2.40
2018-10-12T18:17:51.286Z,3.00
2018-10-12T18:20:19.572Z,3.43
2018-10-12T18:22:48.110Z,3.07
2018-10-12T18:25:16.407Z,2.70
2018-10-12T18:27:44.750Z,2.70
2018-10-12T18:30:13.061Z,3.57
2018-10-12T18:32:41.545Z,3.40
2018-10-12T18:35:09.861Z,3.73
2018-10-12T18:37:38.139Z,3.60
2018-10-12T18:40:06.393Z,3.47
2018-10-12T18:42:34.677Z,3.90
2018-10-12T18:45:03.058Z,3.70
2018-10-12T18:47:31.346Z,5.00
2018-10-12T18:49:59.616Z,3.60
2018-10-12T18:52:27.933Z,3.93
2018-10-12T18:54:56.220Z,3.63
2018-10-12T18:57:24.513Z,3.50
2018-10-12T18:59:52.876Z,3.53
2018-10-12T19:02:21.193Z,3.27
2018-10-12T19:04:49.480Z,3.27
2018-10-12T19:07:17.757Z,3.50
2018-10-12T19:09:46.060Z,3.40
2018-10-12T19:12:14.361Z,3.07
2018-10-12T19:14:42.617Z,3.00
2018-10-12T19:17:11.017Z,3.17
2018-10-12T19:19:39.469Z,3.20
2018-10-12T19:22:07.834Z,3.10
2018-10-12T19:24:36.122Z,3.60
2018-10-12T19:27:04.397Z,3.13
2018-10-12T19:29:32.685Z,3.67
2018-10-12T19:32:01.010Z,3.10
2018-10-12T19:34:29.310Z,3.30
2018-10-12T19:36:57.620Z,3.23
2018-10-12T19:39:25.921Z,3.37
2018-10-12T19:41:54.222Z,3.03
2018-10-12T19:44:22.514Z,3.23
2018-10-12T19:46:50.798Z,3.30
2018-10-12T19:49:19.082Z,3.20
2018-10-12T19:51:47.404Z,2.87
2018-10-12T19:54:15.685Z,3.50
2018-10-12T19:56:43.961Z,3.40
2018-10-12T19:59:12.305Z,3.17
2018-10-12T20:01:40.950Z,3.20
2018-10-12T20:04:09.238Z,3.23
2018-10-12T20:06:37.522Z,3.30
2018-10-12T20:09:08.805Z,3.30
2018-10-12T20:11:37.181Z,3.03
2018-10-12T20:14:05.541Z,3.43
2018-10-12T20:16:33.814Z,2.90
2018-10-12T20:19:02.079Z,3.10
2018-10-12T20:21:30.585Z,3.37
2018-10-12T20:23:58.963Z,3.03
2018-10-12T20:26:27.199Z,3.73
2018-10-12T20:28:55.509Z,3.30
2018-10-12T20:31:24.045Z,3.20
2018-10-12T20:33:52.329Z,3.10
2018-10-12T20:36:20.669Z,2.97
2018-10-12T20:38:48.933Z,3.27
2018-10-12T20:41:17.205Z,3.37
2018-10-12T20:43:45.504Z,2.93
2018-10-12T20:46:13.793Z,3.23
2018-10-12T20:48:42.069Z,3.77
2018-10-12T20:51:10.355Z,3.60
2018-10-12T20:53:38.701Z,3.73
2018-10-12T20:56:07.207Z,3.80
2018-10-12T20:58:35.437Z,4.20
2018-10-12T21:01:03.770Z,4.00
2018-10-12T21:03:32.041Z,4.00
2018-10-12T21:06:00.352Z,3.50
2018-10-12T21:08:28.646Z,3.87
2018-10-12T21:10:56.946Z,4.07
2018-10-12T21:13:25.273Z,3.40
2018-10-12T21:15:53.577Z,3.80
2018-10-12T21:18:21.873Z,3.27
2018-10-12T21:20:50.148Z,3.53
2018-10-12T21:23:18.421Z,3.57
2018-10-12T21:25:46.729Z,3.43
2018-10-12T21:28:15.117Z,3.57
2018-10-12T21:30:43.333Z,3.53
2018-10-12T21:33:11.625Z,4.50
2018-10-12T21:35:39.897Z,4.70
2018-10-12T21:38:08.221Z,3.10
2018-10-12T21:40:36.502Z,3.90
2018-10-12T21:43:04.922Z,3.73
2018-10-12T21:45:33.199Z,3.63
2018-10-12T21:48:01.492Z,3.50
2018-10-12T21:50:29.818Z,3.10
2018-10-12T21:52:58.073Z,3.03
2018-10-12T21:55:26.353Z,4.20
2018-10-12T21:57:54.658Z,3.70
2018-10-12T22:00:22.935Z,3.30
2018-10-12T22:02:51.233Z,3.90
2018-10-12T22:05:19.530Z,3.53
2018-10-12T22:07:47.786Z,3.53
2018-10-12T22:10:16.061Z,3.60
2018-10-12T22:12:44.381Z,3.23
2018-10-12T22:15:12.757Z,3.87
2018-10-12T22:17:41.091Z,3.57
2018-10-12T22:20:09.390Z,3.40
2018-10-12T22:22:37.641Z,3.57
2018-10-12T22:25:06.074Z,3.70
2018-10-12T22:27:34.373Z,3.40
2018-10-12T22:30:02.662Z,3.73
2018-10-12T22:32:30.945Z,4.63
2018-10-12T22:34:59.247Z,3.87
2018-10-12T22:37:27.513Z,3.70
2018-10-12T22:39:55.767Z,3.43
2018-10-12T22:42:24.045Z,3.40
2018-10-12T22:44:52.288Z,3.30
2018-10-12T22:47:20.601Z,3.80
2018-10-12T22:49:48.926Z,3.63
2018-10-12T22:52:17.185Z,4.40
2018-10-12T22:54:45.482Z,2.90
2018-10-12T22:57:13.709Z,2.97
2018-10-12T22:59:41.994Z,3.13
2018-10-12T23:02:10.247Z,3.30
2018-10-12T23:04:38.736Z,3.40
2018-10-12T23:07:07.008Z,3.33
2018-10-12T23:09:35.290Z,3.00
2018-10-12T23:12:03.569Z,3.83
2018-10-12T23:14:31.837Z,3.43
2018-10-12T23:17:00.138Z,3.27
2018-10-12T23:19:28.430Z,3.50
2018-10-12T23:21:56.721Z,3.10
2018-10-12T23:24:24.985Z,3.70
2018-10-12T23:26:53.266Z,2.93
2018-10-12T23:29:21.537Z,4.77
2018-10-12T23:31:49.810Z,3.97
2018-10-12T23:34:18.098Z,3.10
2018-10-12T23:36:46.401Z,2.60
2018-10-12T23:39:14.733Z,2.70
2018-10-12T23:41:43.069Z,2.90
2018-10-12T23:44:11.349Z,2.93
2018-10-12T23:46:39.637Z,3.00
2018-10-12T23:49:07.893Z,3.27
2018-10-12T23:51:36.215Z,3.00
2018-10-12T23:54:04.501Z,3.00
2018-10-12T23:56:32.769Z,2.67
2018-10-12T23:59:01.051Z,3.03
